sensor_id;sensor_type;location;lat;lon;timestamp;P1;durP1;ratioP1;P2;durP2;ratioP2
2686;SDS011;1353;51.386;7.028;2022-11-21T00:00:57;34.63;;;18.98;;
2686;SDS011;1353;51.386;7.028;2022-11-21T00:03:24;33.05;;;18.92;;
2686;SDS011;1353;51.386;7.028;2022-11-21T00:05:51;34.75;;;18.40;;
2686;SDS011;1353;51.386;7.028;2022-11-21T00:08:18;32.92;;;18.55;;
2686;SDS011;1353;51.386;7.028;2022-11-21T00:10:46;37.15;;;19.92;;
2686;SDS011;1353;51.386;7.028;2022-11-21T00:13:15;39.38;;;19.73;;
2686;SDS011;1353;51.386;7.028;2022-11-21T00:15:43;32.90;;;20.08;;
2686;SDS011;1353;51.386;7.028;2022-11-21T00:18:10;37.83;;;20.50;;
2686;SDS011;1353;51.386;7.028;2022-11-21T00:20:37;34.50;;;20.45;;
2686;SDS011;1353;51.386;7.028;2022-11-21T00:23:04;41.47;;;21.33;;
2686;SDS011;1353;51.386;7.028;2022-11-21T00:25:31;38.03;;;21.48;;
2686;SDS011;1353;51.386;7.028;2022-11-21T00:27:58;39.40;;;19.23;;
2686;SDS011;1353;51.386;7.028;2022-11-21T00:30:26;35.22;;;20.23;;
2686;SDS011;1353;51.386;7.028;2022-11-21T00:32:53;38.00;;;21.45;;
2686;SDS011;1353;51.386;7.028;2022-11-21T00:35:20;35.10;;;20.35;;
2686;SDS011;1353;51.386;7.028;2022-11-21T00:37:47;29.20;;;18.08;;
2686;SDS011;1353;51.386;7.028;2022-11-21T00:40:15;39.00;;;21.80;;
2686;SDS011;1353;51.386;7.028;2022-11-21T00:42:42;34.15;;;19.33;;
2686;SDS011;1353;51.386;7.028;2022-11-21T00:45:09;35.30;;;18.83;;
2686;SDS011;1353;51.386;7.028;2022-11-21T00:47:37;38.65;;;19.60;;
2686;SDS011;1353;51.386;7.028;2022-11-21T00:50:04;39.08;;;20.75;;
2686;SDS011;1353;51.386;7.028;2022-11-21T00:52:32;37.72;;;20.67;;
2686;SDS011;1353;51.386;7.028;2022-11-21T00:54:58;38.70;;;18.83;;
2686;SDS011;1353;51.386;7.028;2022-11-21T00:57:25;40.90;;;21.25;;
2686;SDS011;1353;51.386;7.028;2022-11-21T00:59:52;46.65;;;23.55;;
2686;SDS011;1353;51.386;7.028;2022-11-21T01:02:18;42.08;;;21.90;;
2686;SDS011;1353;51.386;7.028;2022-11-21T01:04:46;44.45;;;24.58;;
2686;SDS011;1353;51.386;7.028;2022-11-21T01:07:13;37.28;;;21.70;;
2686;SDS011;1353;51.386;7.028;2022-11-21T01:09:40;38.50;;;20.90;;
2686;SDS011;1353;51.386;7.028;2022-11-21T01:12:08;38.53;;;21.45;;
2686;SDS011;1353;51.386;7.028;2022-11-21T01:14:35;38.60;;;20.50;;
2686;SDS011;1353;51.386;7.028;2022-11-21T01:17:02;42.70;;;20.67;;
2686;SDS011;1353;51.386;7.028;2022-11-21T01:19:29;42.08;;;20.70;;
2686;SDS011;1353;51.386;7.028;2022-11-21T01:21:57;35.38;;;20.70;;
2686;SDS011;1353;51.386;7.028;2022-11-21T01:24:24;34.85;;;19.90;;
2686;SDS011;1353;51.386;7.028;2022-11-21T01:26:51;33.15;;;19.38;;
2686;SDS011;1353;51.386;7.028;2022-11-21T01:29:18;39.60;;;21.15;;
2686;SDS011;1353;51.386;7.028;2022-11-21T01:31:45;42.45;;;22.50;;
2686;SDS011;1353;51.386;7.028;2022-11-21T01:34:12;40.78;;;20.30;;
2686;SDS011;1353;51.386;7.028;2022-11-21T01:36:39;44.97;;;22.00;;
2686;SDS011;1353;51.386;7.028;2022-11-21T01:39:09;41.40;;;21.80;;
2686;SDS011;1353;51.386;7.028;2022-11-21T01:41:37;37.78;;;19.40;;
2686;SDS011;1353;51.386;7.028;2022-11-21T01:44:09;49.58;;;21.95;;
2686;SDS011;1353;51.386;7.028;2022-11-21T01:46:41;37.35;;;21.38;;
2686;SDS011;1353;51.386;7.028;2022-11-21T01:49:09;41.10;;;21.40;;
2686;SDS011;1353;51.386;7.028;2022-11-21T01:51:39;39.22;;;22.48;;
2686;SDS011;1353;51.386;7.028;2022-11-21T01:54:11;35.70;;;20.70;;
2686;SDS011;1353;51.386;7.028;2022-11-21T01:56:43;36.00;;;21.05;;
2686;SDS011;1353;51.386;7.028;2022-11-21T01:59:14;38.47;;;21.63;;
2686;SDS011;1353;51.386;7.028;2022-11-21T02:01:45;41.80;;;21.85;;
2686;SDS011;1353;51.386;7.028;2022-11-21T02:04:15;41.55;;;22.40;;
2686;SDS011;1353;51.386;7.028;2022-11-21T02:06:42;44.17;;;21.63;;
2686;SDS011;1353;51.386;7.028;2022-11-21T02:09:10;47.78;;;22.80;;
2686;SDS011;1353;51.386;7.028;2022-11-21T02:11:39;58.00;;;25.10;;
2686;SDS011;1353;51.386;7.028;2022-11-21T02:14:08;38.70;;;21.85;;
2686;SDS011;1353;51.386;7.028;2022-11-21T02:16:36;45.75;;;23.38;;
2686;SDS011;1353;51.386;7.028;2022-11-21T02:19:03;42.50;;;22.50;;
2686;SDS011;1353;51.386;7.028;2022-11-21T02:21:35;40.78;;;21.60;;
2686;SDS011;1353;51.386;7.028;2022-11-21T02:24:09;38.50;;;21.38;;
2686;SDS011;1353;51.386;7.028;2022-11-21T02:26:44;46.83;;;23.92;;
2686;SDS011;1353;51.386;7.028;2022-11-21T02:29:13;42.05;;;22.17;;
2686;SDS011;1353;51.386;7.028;2022-11-21T02:31:40;45.53;;;23.92;;
2686;SDS011;1353;51.386;7.028;2022-11-21T02:34:06;45.85;;;23.33;;
2686;SDS011;1353;51.386;7.028;2022-11-21T02:36:41;37.05;;;21.30;;
2686;SDS011;1353;51.386;7.028;2022-11-21T02:39:10;42.40;;;24.45;;
2686;SDS011;1353;51.386;7.028;2022-11-21T02:41:44;46.30;;;24.45;;
2686;SDS011;1353;51.386;7.028;2022-11-21T02:44:19;41.42;;;21.42;;
2686;SDS011;1353;51.386;7.028;2022-11-21T02:46:51;44.50;;;22.20;;
2686;SDS011;1353;51.386;7.028;2022-11-21T02:49:20;39.55;;;20.88;;
2686;SDS011;1353;51.386;7.028;2022-11-21T02:51:52;40.60;;;23.52;;
2686;SDS011;1353;51.386;7.028;2022-11-21T02:54:19;48.88;;;22.88;;
2686;SDS011;1353;51.386;7.028;2022-11-21T02:56:47;45.53;;;22.05;;
2686;SDS011;1353;51.386;7.028;2022-11-21T02:59:14;41.70;;;22.70;;
2686;SDS011;1353;51.386;7.028;2022-11-21T03:01:41;47.72;;;22.67;;
2686;SDS011;1353;51.386;7.028;2022-11-21T03:04:07;48.95;;;24.02;;
2686;SDS011;1353;51.386;7.028;2022-11-21T03:06:34;40.70;;;21.73;;
2686;SDS011;1353;51.386;7.028;2022-11-21T03:09:01;44.40;;;22.60;;
2686;SDS011;1353;51.386;7.028;2022-11-21T03:11:28;40.72;;;21.80;;
2686;SDS011;1353;51.386;7.028;2022-11-21T03:13:56;45.28;;;21.92;;
2686;SDS011;1353;51.386;7.028;2022-11-21T03:16:22;45.78;;;23.88;;
2686;SDS011;1353;51.386;7.028;2022-11-21T03:18:49;42.85;;;20.20;;
2686;SDS011;1353;51.386;7.028;2022-11-21T03:21:16;43.13;;;22.55;;
2686;SDS011;1353;51.386;7.028;2022-11-21T03:23:43;48.80;;;22.83;;
2686;SDS011;1353;51.386;7.028;2022-11-21T03:26:10;39.80;;;20.30;;
2686;SDS011;1353;51.386;7.028;2022-11-21T03:28:36;39.05;;;20.38;;
2686;SDS011;1353;51.386;7.028;2022-11-21T03:31:04;42.72;;;20.48;;
2686;SDS011;1353;51.386;7.028;2022-11-21T03:33:31;44.13;;;18.98;;
2686;SDS011;1353;51.386;7.028;2022-11-21T03:35:58;44.10;;;21.33;;
2686;SDS011;1353;51.386;7.028;2022-11-21T03:38:25;26.73;;;12.13;;
2686;SDS011;1353;51.386;7.028;2022-11-21T03:40:51;29.65;;;13.98;;
2686;SDS011;1353;51.386;7.028;2022-11-21T03:43:18;31.17;;;15.38;;
2686;SDS011;1353;51.386;7.028;2022-11-21T03:45:45;34.90;;;16.00;;
2686;SDS011;1353;51.386;7.028;2022-11-21T03:48:13;17.95;;;10.10;;
2686;SDS011;1353;51.386;7.028;2022-11-21T03:50:41;25.85;;;13.93;;
2686;SDS011;1353;51.386;7.028;2022-11-21T03:53:08;31.75;;;14.32;;
2686;SDS011;1353;51.386;7.028;2022-11-21T03:55:35;30.25;;;14.98;;
2686;SDS011;1353;51.386;7.028;2022-11-21T03:58:02;30.52;;;15.00;;
2686;SDS011;1353;51.386;7.028;2022-11-21T04:00:29;34.53;;;16.63;;
2686;SDS011;1353;51.386;7.028;2022-11-21T04:02:55;29.75;;;14.60;;
2686;SDS011;1353;51.386;7.028;2022-11-21T04:05:23;28.58;;;14.90;;
2686;SDS011;1353;51.386;7.028;2022-11-21T04:07:50;30.35;;;15.55;;
2686;SDS011;1353;51.386;7.028;2022-11-21T04:10:18;31.52;;;16.15;;
2686;SDS011;1353;51.386;7.028;2022-11-21T04:12:45;31.67;;;15.52;;
2686;SDS011;1353;51.386;7.028;2022-11-21T04:15:11;34.90;;;17.17;;
2686;SDS011;1353;51.386;7.028;2022-11-21T04:17:38;30.70;;;16.20;;
2686;SDS011;1353;51.386;7.028;2022-11-21T04:20:05;35.25;;;17.10;;
2686;SDS011;1353;51.386;7.028;2022-11-21T04:22:34;44.28;;;19.52;;
2686;SDS011;1353;51.386;7.028;2022-11-21T04:25:01;35.83;;;16.48;;
2686;SDS011;1353;51.386;7.028;2022-11-21T04:27:27;38.17;;;18.60;;
2686;SDS011;1353;51.386;7.028;2022-11-21T04:29:54;38.33;;;20.48;;
2686;SDS011;1353;51.386;7.028;2022-11-21T04:32:21;42.80;;;19.75;;
2686;SDS011;1353;51.386;7.028;2022-11-21T04:34:47;44.45;;;21.88;;
2686;SDS011;1353;51.386;7.028;2022-11-21T04:37:14;44.33;;;21.40;;
2686;SDS011;1353;51.386;7.028;2022-11-21T04:39:42;46.50;;;23.38;;
2686;SDS011;1353;51.386;7.028;2022-11-21T04:42:09;51.45;;;23.27;;
2686;SDS011;1353;51.386;7.028;2022-11-21T04:44:35;57.75;;;23.67;;
2686;SDS011;1353;51.386;7.028;2022-11-21T04:47:02;63.97;;;25.95;;
2686;SDS011;1353;51.386;7.028;2022-11-21T04:49:29;57.92;;;21.92;;
2686;SDS011;1353;51.386;7.028;2022-11-21T04:51:56;58.95;;;25.73;;
2686;SDS011;1353;51.386;7.028;2022-11-21T04:54:22;67.70;;;24.55;;
2686;SDS011;1353;51.386;7.028;2022-11-21T04:56:51;62.17;;;25.80;;
2686;SDS011;1353;51.386;7.028;2022-11-21T04:59:17;68.63;;;24.92;;
2686;SDS011;1353;51.386;7.028;2022-11-21T05:01:44;65.65;;;26.77;;
2686;SDS011;1353;51.386;7.028;2022-11-21T05:04:11;76.30;;;27.95;;
2686;SDS011;1353;51.386;7.028;2022-11-21T05:06:38;69.90;;;26.83;;
2686;SDS011;1353;51.386;7.028;2022-11-21T05:09:04;70.15;;;26.85;;
2686;SDS011;1353;51.386;7.028;2022-11-21T05:11:31;71.30;;;26.58;;
2686;SDS011;1353;51.386;7.028;2022-11-21T05:14:17;76.63;;;26.75;;
2686;SDS011;1353;51.386;7.028;2022-11-21T05:16:44;68.38;;;26.60;;
2686;SDS011;1353;51.386;7.028;2022-11-21T05:19:10;68.47;;;25.85;;
2686;SDS011;1353;51.386;7.028;2022-11-21T05:21:37;64.05;;;26.38;;
2686;SDS011;1353;51.386;7.028;2022-11-21T05:24:04;62.80;;;25.15;;
2686;SDS011;1353;51.386;7.028;2022-11-21T05:26:31;70.03;;;27.08;;
2686;SDS011;1353;51.386;7.028;2022-11-21T05:28:58;76.65;;;28.70;;
2686;SDS011;1353;51.386;7.028;2022-11-21T05:31:26;68.72;;;26.55;;
2686;SDS011;1353;51.386;7.028;2022-11-21T05:33:53;69.35;;;26.77;;
2686;SDS011;1353;51.386;7.028;2022-11-21T05:36:20;77.15;;;26.60;;
2686;SDS011;1353;51.386;7.028;2022-11-21T05:38:47;75.07;;;27.52;;
2686;SDS011;1353;51.386;7.028;2022-11-21T05:41:13;65.75;;;25.50;;
2686;SDS011;1353;51.386;7.028;2022-11-21T05:43:40;74.95;;;25.98;;
2686;SDS011;1353;51.386;7.028;2022-11-21T05:46:13;63.08;;;26.77;;
2686;SDS011;1353;51.386;7.028;2022-11-21T05:48:42;59.58;;;27.65;;
2686;SDS011;1353;51.386;7.028;2022-11-21T05:51:09;69.45;;;26.63;;
2686;SDS011;1353;51.386;7.028;2022-11-21T05:53:36;53.38;;;23.67;;
2686;SDS011;1353;51.386;7.028;2022-11-21T05:56:04;60.83;;;23.77;;
2686;SDS011;1353;51.386;7.028;2022-11-21T05:58:32;69.80;;;23.77;;
2686;SDS011;1353;51.386;7.028;2022-11-21T06:00:59;59.60;;;25.02;;
2686;SDS011;1353;51.386;7.028;2022-11-21T06:03:28;55.78;;;22.38;;
2686;SDS011;1353;51.386;7.028;2022-11-21T06:06:04;54.60;;;22.73;;
2686;SDS011;1353;51.386;7.028;2022-11-21T06:08:32;61.88;;;22.80;;
2686;SDS011;1353;51.386;7.028;2022-11-21T06:11:00;58.40;;;23.67;;
2686;SDS011;1353;51.386;7.028;2022-11-21T06:13:27;58.50;;;24.17;;
2686;SDS011;1353;51.386;7.028;2022-11-21T06:15:57;56.25;;;22.33;;
2686;SDS011;1353;51.386;7.028;2022-11-21T06:18:25;58.25;;;25.80;;
2686;SDS011;1353;51.386;7.028;2022-11-21T06:20:53;57.55;;;23.75;;
2686;SDS011;1353;51.386;7.028;2022-11-21T06:23:21;59.80;;;24.40;;
2686;SDS011;1353;51.386;7.028;2022-11-21T06:25:52;53.55;;;22.75;;
2686;SDS011;1353;51.386;7.028;2022-11-21T06:28:22;56.75;;;25.20;;
2686;SDS011;1353;51.386;7.028;2022-11-21T06:30:49;61.40;;;24.33;;
2686;SDS011;1353;51.386;7.028;2022-11-21T06:33:16;60.85;;;26.70;;
2686;SDS011;1353;51.386;7.028;2022-11-21T06:35:44;70.57;;;25.52;;
2686;SDS011;1353;51.386;7.028;2022-11-21T06:38:10;59.95;;;24.55;;
2686;SDS011;1353;51.386;7.028;2022-11-21T06:40:39;59.45;;;22.42;;
2686;SDS011;1353;51.386;7.028;2022-11-21T06:43:05;61.30;;;22.90;;
2686;SDS011;1353;51.386;7.028;2022-11-21T06:45:32;64.05;;;24.13;;
2686;SDS011;1353;51.386;7.028;2022-11-21T06:48:00;58.90;;;23.27;;
2686;SDS011;1353;51.386;7.028;2022-11-21T06:50:28;61.28;;;23.00;;
2686;SDS011;1353;51.386;7.028;2022-11-21T06:52:55;53.50;;;21.63;;
2686;SDS011;1353;51.386;7.028;2022-11-21T06:55:22;56.53;;;22.33;;
2686;SDS011;1353;51.386;7.028;2022-11-21T06:57:51;55.88;;;22.35;;
2686;SDS011;1353;51.386;7.028;2022-11-21T07:00:18;50.65;;;21.63;;
2686;SDS011;1353;51.386;7.028;2022-11-21T07:02:45;53.65;;;21.13;;
2686;SDS011;1353;51.386;7.028;2022-11-21T07:05:12;49.10;;;21.50;;
2686;SDS011;1353;51.386;7.028;2022-11-21T07:07:38;53.92;;;22.13;;
2686;SDS011;1353;51.386;7.028;2022-11-21T07:10:06;42.53;;;19.23;;
2686;SDS011;1353;51.386;7.028;2022-11-21T07:12:33;42.72;;;20.05;;
2686;SDS011;1353;51.386;7.028;2022-11-21T07:15:19;51.35;;;21.17;;
2686;SDS011;1353;51.386;7.028;2022-11-21T07:17:46;43.08;;;20.25;;
2686;SDS011;1353;51.386;7.028;2022-11-21T07:20:12;42.85;;;21.52;;
2686;SDS011;1353;51.386;7.028;2022-11-21T07:22:39;51.35;;;23.17;;
2686;SDS011;1353;51.386;7.028;2022-11-21T07:25:06;42.30;;;20.75;;
2686;SDS011;1353;51.386;7.028;2022-11-21T07:27:33;55.22;;;21.85;;
2686;SDS011;1353;51.386;7.028;2022-11-21T07:30:00;49.15;;;20.83;;
2686;SDS011;1353;51.386;7.028;2022-11-21T07:32:28;47.35;;;21.90;;
2686;SDS011;1353;51.386;7.028;2022-11-21T07:34:55;46.20;;;21.60;;
2686;SDS011;1353;51.386;7.028;2022-11-21T07:37:22;45.97;;;21.40;;
2686;SDS011;1353;51.386;7.028;2022-11-21T07:39:48;59.58;;;24.08;;
2686;SDS011;1353;51.386;7.028;2022-11-21T07:42:15;64.10;;;24.27;;
2686;SDS011;1353;51.386;7.028;2022-11-21T07:44:42;55.95;;;23.38;;
2686;SDS011;1353;51.386;7.028;2022-11-21T07:47:08;61.63;;;23.45;;
2686;SDS011;1353;51.386;7.028;2022-11-21T07:49:36;66.25;;;25.85;;
2686;SDS011;1353;51.386;7.028;2022-11-21T07:52:03;67.18;;;26.48;;
2686;SDS011;1353;51.386;7.028;2022-11-21T07:54:30;72.95;;;28.85;;
2686;SDS011;1353;51.386;7.028;2022-11-21T07:56:57;83.25;;;26.63;;
2686;SDS011;1353;51.386;7.028;2022-11-21T07:59:24;71.00;;;27.10;;
2686;SDS011;1353;51.386;7.028;2022-11-21T08:01:50;76.65;;;28.13;;
2686;SDS011;1353;51.386;7.028;2022-11-21T08:04:17;90.28;;;27.83;;
2686;SDS011;1353;51.386;7.028;2022-11-21T08:06:47;75.65;;;28.27;;
2686;SDS011;1353;51.386;7.028;2022-11-21T08:09:13;70.72;;;26.05;;
2686;SDS011;1353;51.386;7.028;2022-11-21T08:11:40;70.63;;;26.60;;
2686;SDS011;1353;51.386;7.028;2022-11-21T08:14:07;81.20;;;27.80;;
2686;SDS011;1353;51.386;7.028;2022-11-21T08:16:34;58.90;;;24.90;;
2686;SDS011;1353;51.386;7.028;2022-11-21T08:19:01;81.07;;;24.87;;
2686;SDS011;1353;51.386;7.028;2022-11-21T08:21:27;66.97;;;25.42;;
2686;SDS011;1353;51.386;7.028;2022-11-21T08:23:56;72.63;;;29.50;;
2686;SDS011;1353;51.386;7.028;2022-11-21T08:26:23;66.10;;;26.23;;
2686;SDS011;1353;51.386;7.028;2022-11-21T08:28:50;60.15;;;24.45;;
2686;SDS011;1353;51.386;7.028;2022-11-21T08:31:17;67.50;;;27.25;;
2686;SDS011;1353;51.386;7.028;2022-11-21T08:33:43;89.40;;;26.67;;
2686;SDS011;1353;51.386;7.028;2022-11-21T08:36:10;114.85;;;28.15;;
2686;SDS011;1353;51.386;7.028;2022-11-21T08:38:37;75.37;;;28.20;;
2686;SDS011;1353;51.386;7.028;2022-11-21T08:41:05;65.33;;;26.10;;
2686;SDS011;1353;51.386;7.028;2022-11-21T08:43:49;62.90;;;24.47;;
2686;SDS011;1353;51.386;7.028;2022-11-21T08:46:17;61.53;;;25.47;;
2686;SDS011;1353;51.386;7.028;2022-11-21T08:48:43;57.25;;;23.33;;
2686;SDS011;1353;51.386;7.028;2022-11-21T08:51:10;62.30;;;23.53;;
2686;SDS011;1353;51.386;7.028;2022-11-21T08:53:37;61.97;;;24.43;;
2686;SDS011;1353;51.386;7.028;2022-11-21T08:56:05;62.00;;;22.85;;
2686;SDS011;1353;51.386;7.028;2022-11-21T08:58:32;57.07;;;23.83;;
2686;SDS011;1353;51.386;7.028;2022-11-21T09:00:58;74.13;;;27.83;;
2686;SDS011;1353;51.386;7.028;2022-11-21T09:03:25;72.60;;;25.77;;
2686;SDS011;1353;51.386;7.028;2022-11-21T09:05:54;68.53;;;26.93;;
2686;SDS011;1353;51.386;7.028;2022-11-21T09:08:21;57.00;;;24.43;;
2686;SDS011;1353;51.386;7.028;2022-11-21T09:10:48;64.00;;;28.13;;
2686;SDS011;1353;51.386;7.028;2022-11-21T09:13:16;61.53;;;25.47;;
2686;SDS011;1353;51.386;7.028;2022-11-21T09:15:43;66.93;;;26.57;;
2686;SDS011;1353;51.386;7.028;2022-11-21T09:18:27;57.47;;;24.30;;
2686;SDS011;1353;51.386;7.028;2022-11-21T09:20:54;64.40;;;24.60;;
2686;SDS011;1353;51.386;7.028;2022-11-21T09:23:21;63.00;;;27.33;;
2686;SDS011;1353;51.386;7.028;2022-11-21T09:25:48;70.13;;;26.17;;
2686;SDS011;1353;51.386;7.028;2022-11-21T09:28:14;65.57;;;24.67;;
2686;SDS011;1353;51.386;7.028;2022-11-21T09:30:43;57.97;;;24.37;;
2686;SDS011;1353;51.386;7.028;2022-11-21T09:33:10;60.07;;;23.20;;
2686;SDS011;1353;51.386;7.028;2022-11-21T09:35:38;63.33;;;26.60;;
2686;SDS011;1353;51.386;7.028;2022-11-21T09:38:05;52.43;;;24.90;;
2686;SDS011;1353;51.386;7.028;2022-11-21T09:40:33;50.37;;;23.27;;
2686;SDS011;1353;51.386;7.028;2022-11-21T09:45:55;53.43;;;22.30;;
2686;SDS011;1353;51.386;7.028;2022-11-21T09:48:27;45.87;;;21.50;;
2686;SDS011;1353;51.386;7.028;2022-11-21T09:50:59;48.60;;;23.40;;
2686;SDS011;1353;51.386;7.028;2022-11-21T09:53:31;49.97;;;22.57;;
2686;SDS011;1353;51.386;7.028;2022-11-21T09:56:02;47.23;;;20.77;;
2686;SDS011;1353;51.386;7.028;2022-11-21T09:58:34;57.17;;;24.30;;
2686;SDS011;1353;51.386;7.028;2022-11-21T10:01:04;44.80;;;23.27;;
2686;SDS011;1353;51.386;7.028;2022-11-21T10:03:32;47.10;;;23.10;;
2686;SDS011;1353;51.386;7.028;2022-11-21T10:06:08;48.83;;;24.83;;
2686;SDS011;1353;51.386;7.028;2022-11-21T10:08:43;50.30;;;23.40;;
2686;SDS011;1353;51.386;7.028;2022-11-21T10:11:17;56.23;;;23.10;;
2686;SDS011;1353;51.386;7.028;2022-11-21T10:13:56;41.63;;;21.57;;
2686;SDS011;1353;51.386;7.028;2022-11-21T10:16:31;39.23;;;22.47;;
2686;SDS011;1353;51.386;7.028;2022-11-21T10:19:13;77.87;;;24.63;;
2686;SDS011;1353;51.386;7.028;2022-11-21T10:21:55;45.43;;;22.97;;
2686;SDS011;1353;51.386;7.028;2022-11-21T10:24:37;43.40;;;21.00;;
2686;SDS011;1353;51.386;7.028;2022-11-21T10:27:10;38.93;;;20.30;;
2686;SDS011;1353;51.386;7.028;2022-11-21T10:29:43;35.03;;;18.43;;
2686;SDS011;1353;51.386;7.028;2022-11-21T10:32:18;34.70;;;18.57;;
2686;SDS011;1353;51.386;7.028;2022-11-21T10:34:49;30.30;;;17.33;;
2686;SDS011;1353;51.386;7.028;2022-11-21T10:37:25;32.43;;;18.87;;
2686;SDS011;1353;51.386;7.028;2022-11-21T10:39:56;33.13;;;17.93;;
2686;SDS011;1353;51.386;7.028;2022-11-21T10:42:33;41.23;;;19.47;;
2686;SDS011;1353;51.386;7.028;2022-11-21T10:45:09;32.23;;;17.80;;
2686;SDS011;1353;51.386;7.028;2022-11-21T10:47:43;26.70;;;17.47;;
2686;SDS011;1353;51.386;7.028;2022-11-21T10:50:14;29.83;;;19.37;;
2686;SDS011;1353;51.386;7.028;2022-11-21T10:52:53;34.40;;;19.87;;
2686;SDS011;1353;51.386;7.028;2022-11-21T10:55:54;29.03;;;17.90;;
2686;SDS011;1353;51.386;7.028;2022-11-21T10:58:32;30.97;;;18.00;;
2686;SDS011;1353;51.386;7.028;2022-11-21T11:01:02;30.47;;;15.93;;
2686;SDS011;1353;51.386;7.028;2022-11-21T11:03:29;29.90;;;17.30;;
2686;SDS011;1353;51.386;7.028;2022-11-21T11:05:57;31.47;;;17.77;;
2686;SDS011;1353;51.386;7.028;2022-11-21T11:08:23;32.10;;;18.30;;
2686;SDS011;1353;51.386;7.028;2022-11-21T11:11:03;34.03;;;18.50;;
2686;SDS011;1353;51.386;7.028;2022-11-21T11:13:32;33.00;;;18.10;;
2686;SDS011;1353;51.386;7.028;2022-11-21T11:16:06;32.27;;;17.30;;
2686;SDS011;1353;51.386;7.028;2022-11-21T11:18:44;30.43;;;16.40;;
2686;SDS011;1353;51.386;7.028;2022-11-21T11:21:14;34.13;;;18.83;;
2686;SDS011;1353;51.386;7.028;2022-11-21T11:23:42;27.60;;;14.87;;
2686;SDS011;1353;51.386;7.028;2022-11-21T11:26:17;37.20;;;18.80;;
2686;SDS011;1353;51.386;7.028;2022-11-21T11:28:49;27.40;;;16.93;;
2686;SDS011;1353;51.386;7.028;2022-11-21T11:31:18;33.37;;;17.40;;
2686;SDS011;1353;51.386;7.028;2022-11-21T11:33:49;33.70;;;19.40;;
2686;SDS011;1353;51.386;7.028;2022-11-21T11:36:20;32.03;;;18.20;;
2686;SDS011;1353;51.386;7.028;2022-11-21T11:38:56;32.33;;;17.47;;
2686;SDS011;1353;51.386;7.028;2022-11-21T11:41:44;33.40;;;16.37;;
2686;SDS011;1353;51.386;7.028;2022-11-21T11:44:39;22.90;;;14.97;;
2686;SDS011;1353;51.386;7.028;2022-11-21T11:47:38;27.90;;;15.53;;
2686;SDS011;1353;51.386;7.028;2022-11-21T11:50:14;35.97;;;16.40;;
2686;SDS011;1353;51.386;7.028;2022-11-21T11:52:49;23.07;;;15.57;;
2686;SDS011;1353;51.386;7.028;2022-11-21T11:55:22;28.37;;;15.27;;
2686;SDS011;1353;51.386;7.028;2022-11-21T11:57:55;25.50;;;15.37;;
2686;SDS011;1353;51.386;7.028;2022-11-21T12:00:29;30.30;;;16.27;;
2686;SDS011;1353;51.386;7.028;2022-11-21T12:03:02;28.03;;;17.27;;
2686;SDS011;1353;51.386;7.028;2022-11-21T12:05:36;30.00;;;16.50;;
2686;SDS011;1353;51.386;7.028;2022-11-21T12:08:10;35.97;;;16.83;;
2686;SDS011;1353;51.386;7.028;2022-11-21T12:10:46;30.67;;;18.10;;
2686;SDS011;1353;51.386;7.028;2022-11-21T12:13:36;31.70;;;19.70;;
2686;SDS011;1353;51.386;7.028;2022-11-21T12:16:05;34.80;;;18.00;;
2686;SDS011;1353;51.386;7.028;2022-11-21T12:18:40;33.77;;;18.10;;
2686;SDS011;1353;51.386;7.028;2022-11-21T12:21:15;29.07;;;18.60;;
2686;SDS011;1353;51.386;7.028;2022-11-21T12:23:44;37.33;;;20.40;;
2686;SDS011;1353;51.386;7.028;2022-11-21T12:26:23;35.50;;;20.47;;
2686;SDS011;1353;51.386;7.028;2022-11-21T12:28:59;40.60;;;19.57;;
2686;SDS011;1353;51.386;7.028;2022-11-21T12:31:40;42.03;;;22.00;;
2686;SDS011;1353;51.386;7.028;2022-11-21T12:34:22;35.63;;;20.40;;
2686;SDS011;1353;51.386;7.028;2022-11-21T12:37:02;38.43;;;19.87;;
2686;SDS011;1353;51.386;7.028;2022-11-21T12:39:39;30.57;;;16.80;;
2686;SDS011;1353;51.386;7.028;2022-11-21T12:42:21;31.27;;;17.40;;
2686;SDS011;1353;51.386;7.028;2022-11-21T12:45:18;34.03;;;15.77;;
2686;SDS011;1353;51.386;7.028;2022-11-21T12:48:14;27.43;;;15.93;;
2686;SDS011;1353;51.386;7.028;2022-11-21T12:51:22;24.83;;;13.90;;
2686;SDS011;1353;51.386;7.028;2022-11-21T12:54:25;26.93;;;14.40;;
2686;SDS011;1353;51.386;7.028;2022-11-21T12:57:07;22.50;;;14.33;;
2686;SDS011;1353;51.386;7.028;2022-11-21T12:59:39;22.83;;;13.43;;
2686;SDS011;1353;51.386;7.028;2022-11-21T13:02:23;27.30;;;14.70;;
2686;SDS011;1353;51.386;7.028;2022-11-21T13:04:56;23.90;;;13.50;;
2686;SDS011;1353;51.386;7.028;2022-11-21T13:07:27;22.23;;;13.17;;
2686;SDS011;1353;51.386;7.028;2022-11-21T13:09:55;20.80;;;12.27;;
2686;SDS011;1353;51.386;7.028;2022-11-21T13:12:25;21.20;;;12.67;;
2686;SDS011;1353;51.386;7.028;2022-11-21T13:15:02;20.03;;;11.53;;
2686;SDS011;1353;51.386;7.028;2022-11-21T13:17:39;16.00;;;10.13;;
2686;SDS011;1353;51.386;7.028;2022-11-21T13:20:13;17.00;;;10.83;;
2686;SDS011;1353;51.386;7.028;2022-11-21T13:22:48;14.00;;;10.10;;
2686;SDS011;1353;51.386;7.028;2022-11-21T13:25:38;15.57;;;9.33;;
2686;SDS011;1353;51.386;7.028;2022-11-21T13:28:30;14.07;;;9.80;;
2686;SDS011;1353;51.386;7.028;2022-11-21T13:30:58;14.17;;;10.70;;
2686;SDS011;1353;51.386;7.028;2022-11-21T13:33:43;15.13;;;10.50;;
2686;SDS011;1353;51.386;7.028;2022-11-21T13:42:03;14.90;;;10.30;;
2686;SDS011;1353;51.386;7.028;2022-11-21T13:44:49;18.57;;;11.90;;
2686;SDS011;1353;51.386;7.028;2022-11-21T13:47:35;18.33;;;11.43;;
2686;SDS011;1353;51.386;7.028;2022-11-21T13:50:29;16.97;;;12.63;;
2686;SDS011;1353;51.386;7.028;2022-11-21T13:53:06;16.90;;;11.87;;
2686;SDS011;1353;51.386;7.028;2022-11-21T13:55:50;15.43;;;11.20;;
2686;SDS011;1353;51.386;7.028;2022-11-21T13:58:32;14.00;;;11.03;;
2686;SDS011;1353;51.386;7.028;2022-11-21T14:01:17;12.50;;;10.10;;
2686;SDS011;1353;51.386;7.028;2022-11-21T14:06:54;16.33;;;10.70;;
2686;SDS011;1353;51.386;7.028;2022-11-21T14:09:24;14.03;;;10.00;;
2686;SDS011;1353;51.386;7.028;2022-11-21T14:11:55;13.17;;;9.70;;
2686;SDS011;1353;51.386;7.028;2022-11-21T14:14:28;10.10;;;8.67;;
2686;SDS011;1353;51.386;7.028;2022-11-21T14:17:07;12.93;;;8.37;;
2686;SDS011;1353;51.386;7.028;2022-11-21T14:19:49;10.70;;;8.27;;
2686;SDS011;1353;51.386;7.028;2022-11-21T14:22:23;12.93;;;7.10;;
2686;SDS011;1353;51.386;7.028;2022-11-21T14:24:51;10.00;;;7.43;;
2686;SDS011;1353;51.386;7.028;2022-11-21T14:27:23;8.20;;;6.07;;
2686;SDS011;1353;51.386;7.028;2022-11-21T14:29:53;6.40;;;5.80;;
2686;SDS011;1353;51.386;7.028;2022-11-21T14:32:24;6.50;;;5.70;;
2686;SDS011;1353;51.386;7.028;2022-11-21T14:34:52;5.97;;;5.37;;
2686;SDS011;1353;51.386;7.028;2022-11-21T14:37:32;9.03;;;5.43;;
2686;SDS011;1353;51.386;7.028;2022-11-21T14:39:59;5.70;;;5.07;;
2686;SDS011;1353;51.386;7.028;2022-11-21T14:42:34;6.47;;;5.43;;
2686;SDS011;1353;51.386;7.028;2022-11-21T14:45:05;8.60;;;5.23;;
2686;SDS011;1353;51.386;7.028;2022-11-21T14:47:33;7.20;;;5.97;;
2686;SDS011;1353;51.386;7.028;2022-11-21T14:49:59;10.00;;;5.60;;
2686;SDS011;1353;51.386;7.028;2022-11-21T14:52:26;5.43;;;4.60;;
2686;SDS011;1353;51.386;7.028;2022-11-21T14:54:55;4.43;;;4.03;;
2686;SDS011;1353;51.386;7.028;2022-11-21T14:57:25;6.00;;;4.40;;
2686;SDS011;1353;51.386;7.028;2022-11-21T14:59:54;5.67;;;3.87;;
2686;SDS011;1353;51.386;7.028;2022-11-21T15:02:23;4.17;;;3.77;;
2686;SDS011;1353;51.386;7.028;2022-11-21T15:04:52;7.87;;;4.50;;
2686;SDS011;1353;51.386;7.028;2022-11-21T15:07:21;5.40;;;4.10;;
2686;SDS011;1353;51.386;7.028;2022-11-21T15:09:49;4.57;;;4.17;;
2686;SDS011;1353;51.386;7.028;2022-11-21T15:12:19;6.43;;;4.37;;
2686;SDS011;1353;51.386;7.028;2022-11-21T15:14:49;8.40;;;4.47;;
2686;SDS011;1353;51.386;7.028;2022-11-21T15:17:21;4.33;;;3.60;;
2686;SDS011;1353;51.386;7.028;2022-11-21T15:20:01;8.93;;;4.43;;
2686;SDS011;1353;51.386;7.028;2022-11-21T15:22:41;4.17;;;3.60;;